createdAt,value
2022-10-02T00:00:20.573Z,0.75
2022-10-02T00:02:50.581Z,1.08
2022-10-02T00:05:20.247Z,0.80
2022-10-02T00:07:52.046Z,1.13
2022-10-02T00:10:31.531Z,0.80
2022-10-02T00:13:03.280Z,0.80
2022-10-02T00:15:32.301Z,0.68
2022-10-02T00:18:04.509Z,0.73
2022-10-02T00:20:58.633Z,0.70
2022-10-02T00:23:33.456Z,0.45
2022-10-02T00:26:09.443Z,0.50
2022-10-02T00:28:58.749Z,0.50
2022-10-02T00:31:31.120Z,1.20
2022-10-02T00:34:05.382Z,0.60
2022-10-02T00:36:56.585Z,1.27
2022-10-02T00:39:47.291Z,0.70
2022-10-02T00:42:45.713Z,0.75
2022-10-02T00:45:45.183Z,1.00
2022-10-02T00:48:34.663Z,0.82
2022-10-02T00:51:14.365Z,1.00
2022-10-02T00:54:19.087Z,1.20
2022-10-02T00:57:11.714Z,1.00
2022-10-02T00:59:57.075Z,1.13
2022-10-02T01:02:26.357Z,0.80
2022-10-02T01:04:54.376Z,1.35
2022-10-02T01:07:21.610Z,1.40
2022-10-02T01:09:48.297Z,1.00
2022-10-02T01:12:14.925Z,1.03
2022-10-02T01:14:41.840Z,1.10
2022-10-02T01:17:30.624Z,0.95
2022-10-02T01:19:59.420Z,1.13
2022-10-02T01:22:49.140Z,1.80
2022-10-02T01:25:15.744Z,0.60
2022-10-02T01:27:42.934Z,0.88
2022-10-02T01:30:12.416Z,1.00
2022-10-02T01:32:44.052Z,1.27
2022-10-02T01:35:10.793Z,0.90
2022-10-02T01:37:41.312Z,1.10
2022-10-02T01:40:11.031Z,1.00
2022-10-02T01:42:38.826Z,1.42
2022-10-02T01:45:06.823Z,1.10
2022-10-02T01:47:43.992Z,1.63
2022-10-02T01:50:28.912Z,1.47
2022-10-02T01:53:25.575Z,1.20
2022-10-02T01:56:27.316Z,1.80
2022-10-02T01:59:17.366Z,1.48
2022-10-02T02:02:12.215Z,1.70
2022-10-02T02:04:46.365Z,1.57
2022-10-02T02:07:28.504Z,1.67
2022-10-02T02:10:18.326Z,2.03
2022-10-02T02:13:04.478Z,1.90
2022-10-02T02:15:42.983Z,1.80
2022-10-02T02:18:33.541Z,2.20
2022-10-02T02:21:08.863Z,2.05
2022-10-02T02:23:38.952Z,1.88
2022-10-02T02:26:12.220Z,2.25
2022-10-02T02:28:45.004Z,1.70
2022-10-02T02:31:16.546Z,2.00
2022-10-02T02:33:47.848Z,2.05
2022-10-02T02:36:18.484Z,2.40
2022-10-02T02:38:57.707Z,2.20
2022-10-02T02:41:28.200Z,2.33
2022-10-02T02:44:14.755Z,2.07
2022-10-02T02:47:11.166Z,2.40
2022-10-02T02:50:00.122Z,2.13
2022-10-02T02:52:31.103Z,2.70
2022-10-02T02:55:07.772Z,1.77
2022-10-02T02:57:43.566Z,2.00
2022-10-02T03:00:15.572Z,1.70
2022-10-02T03:02:42.315Z,1.52
2022-10-02T03:05:14.799Z,1.65
2022-10-02T03:07:56.720Z,2.28
2022-10-02T03:10:35.520Z,1.77
2022-10-02T03:13:14.947Z,2.00
2022-10-02T03:15:50.279Z,1.52
2022-10-02T03:18:38.397Z,2.10
2022-10-02T03:21:14.535Z,1.90
2022-10-02T03:23:58.445Z,1.63
2022-10-02T03:26:37.317Z,1.27
2022-10-02T03:29:10.659Z,1.80
2022-10-02T03:31:37.481Z,1.52
2022-10-02T03:34:05.247Z,1.33
2022-10-02T03:36:31.692Z,1.20
2022-10-02T03:39:23.743Z,1.50
2022-10-02T03:41:48.476Z,1.63
2022-10-02T03:44:14.808Z,1.77
2022-10-02T03:46:41.263Z,1.50
2022-10-02T03:49:07.664Z,1.60
2022-10-02T03:51:34.025Z,1.42
2022-10-02T03:54:00.426Z,1.33
2022-10-02T03:56:36.731Z,1.30
2022-10-02T03:59:10.536Z,1.20
2022-10-02T04:01:46.887Z,1.40
2022-10-02T04:04:21.417Z,1.30
2022-10-02T04:06:51.814Z,1.42
2022-10-02T04:10:04.266Z,1.58
2022-10-02T04:12:40.103Z,1.20
2022-10-02T04:15:20.469Z,1.20
2022-10-02T04:18:03.024Z,1.38
2022-10-02T04:20:41.594Z,1.10
2022-10-02T04:23:25.828Z,1.35
2022-10-02T04:25:59.864Z,0.98
2022-10-02T04:28:35.136Z,1.50
2022-10-02T04:31:02.701Z,1.48
2022-10-02T04:33:29.417Z,1.27
2022-10-02T04:36:06.330Z,1.20
2022-10-02T04:38:35.503Z,1.20
2022-10-02T04:41:08.022Z,1.37
2022-10-02T04:43:57.758Z,1.42
2022-10-02T04:46:42.830Z,1.75
2022-10-02T04:49:09.116Z,1.02
2022-10-02T04:51:47.675Z,1.35
2022-10-02T04:54:29.341Z,1.23
2022-10-02T04:57:20.120Z,1.33
2022-10-02T05:00:10.935Z,1.38
2022-10-02T05:03:05.961Z,1.27
2022-10-02T05:06:00.213Z,2.05
2022-10-02T05:08:35.573Z,1.43
2022-10-02T05:11:04.764Z,1.10
2022-10-02T05:13:56.037Z,1.45
2022-10-02T05:16:55.904Z,1.20
2022-10-02T05:20:07.492Z,1.00
2022-10-02T05:22:55.728Z,1.10
2022-10-02T05:25:24.704Z,1.20
2022-10-02T05:28:12.489Z,1.13
2022-10-02T05:30:49.714Z,1.95
2022-10-02T05:33:34.833Z,0.98
2022-10-02T05:36:25.668Z,0.90
2022-10-02T05:39:07.225Z,0.80
2022-10-02T05:41:50.360Z,1.00
2022-10-02T05:44:22.149Z,1.20
2022-10-02T05:47:01.403Z,1.63
2022-10-02T05:49:37.865Z,1.60
2022-10-02T05:52:11.657Z,1.08
2022-10-02T05:54:44.309Z,0.93
2022-10-02T05:57:21.308Z,1.13
2022-10-02T06:00:06.550Z,0.93
2022-10-02T06:02:57.067Z,1.30
2022-10-02T06:05:41.487Z,1.05
2022-10-02T06:08:14.213Z,0.70
2022-10-02T06:10:48.807Z,0.82
2022-10-02T06:13:30.287Z,0.98
2022-10-02T06:16:14.596Z,0.97
2022-10-02T06:18:46.332Z,0.68
2022-10-02T06:21:31.272Z,0.80
2022-10-02T06:24:04.692Z,1.05
2022-10-02T06:26:38.326Z,1.00
2022-10-02T06:29:15.999Z,1.07
2022-10-02T06:31:54.658Z,1.30
2022-10-02T06:34:22.483Z,0.85
2022-10-02T06:37:22.032Z,1.02
2022-10-02T06:40:06.523Z,1.30
2022-10-02T06:42:53.032Z,1.10
2022-10-02T06:45:39.079Z,1.05
2022-10-02T06:48:22.216Z,2.00
2022-10-02T06:51:08.752Z,1.02
2022-10-02T06:53:46.143Z,0.95
2022-10-02T06:56:31.212Z,0.90
2022-10-02T06:59:16.308Z,1.52
2022-10-02T07:01:56.405Z,1.33
2022-10-02T07:04:45.033Z,1.50
2022-10-02T07:07:49.756Z,1.30
2022-10-02T07:10:37.372Z,1.30
2022-10-02T07:13:19.907Z,1.60
2022-10-02T07:16:09.255Z,1.70
2022-10-02T07:19:00.817Z,1.05
2022-10-02T07:21:49.316Z,1.55
2022-10-02T07:24:42.198Z,1.63
2022-10-02T07:27:38.856Z,1.10
2022-10-02T07:30:09.064Z,1.77
2022-10-02T07:32:49.028Z,1.10
2022-10-02T07:35:21.956Z,1.67
2022-10-02T07:38:03.184Z,1.17
2022-10-02T07:40:46.292Z,1.30
2022-10-02T07:43:27.397Z,1.15
2022-10-02T07:46:20.272Z,1.13
2022-10-02T07:49:14.281Z,1.17
2022-10-02T07:51:51.424Z,1.63
2022-10-02T07:54:26.915Z,1.38
2022-10-02T07:56:56.972Z,1.10
2022-10-02T07:59:23.621Z,1.00
2022-10-02T08:01:51.066Z,1.23
2022-10-02T08:04:31.359Z,1.20
2022-10-02T08:07:03.723Z,2.28
2022-10-02T08:09:53.249Z,1.48
2022-10-02T08:12:53.724Z,0.98
2022-10-02T08:15:22.305Z,1.48
2022-10-02T08:17:52.689Z,1.27
2022-10-02T08:20:33.944Z,1.10
2022-10-02T08:23:04.143Z,1.00
2022-10-02T08:25:38.972Z,0.93
2022-10-02T08:28:16.627Z,1.15
2022-10-02T08:30:43.188Z,1.60
2022-10-02T08:33:17.869Z,1.38
2022-10-02T08:36:04.573Z,1.33
2022-10-02T08:38:40.364Z,1.33
2022-10-02T08:41:49.164Z,0.85
2022-10-02T08:44:40.837Z,1.07
2022-10-02T08:47:19.318Z,0.90
2022-10-02T08:50:04.470Z,0.80
2022-10-02T08:53:04.210Z,1.02
2022-10-02T08:55:58.937Z,1.20
2022-10-02T08:58:39.251Z,1.20
2022-10-02T09:01:50.739Z,1.25
2022-10-02T09:04:28.165Z,1.50
2022-10-02T09:07:03.233Z,1.40
2022-10-02T09:10:07.143Z,1.20
2022-10-02T09:13:02.612Z,1.70
2022-10-02T09:15:40.273Z,1.10
2022-10-02T09:18:15.676Z,2.15
2022-10-02T09:20:55.192Z,1.25
2022-10-02T09:23:36.764Z,1.27
2022-10-02T09:26:18.979Z,1.30
2022-10-02T09:29:09.412Z,1.00
2022-10-02T09:31:57.654Z,1.55
2022-10-02T09:34:30.085Z,1.23
2022-10-02T09:37:40.697Z,1.05
2022-10-02T09:40:34.246Z,2.23
2022-10-02T09:43:18.115Z,0.88
2022-10-02T09:46:06.690Z,0.80
2022-10-02T09:48:54.933Z,1.48
2022-10-02T09:51:46.353Z,0.90
2022-10-02T09:54:29.672Z,1.10
2022-10-02T09:57:17.613Z,1.20
2022-10-02T10:00:17.654Z,1.00
2022-10-02T10:03:19.538Z,0.95
2022-10-02T10:06:16.340Z,0.73
2022-10-02T10:09:01.292Z,1.20
2022-10-02T10:11:56.432Z,1.23
2022-10-02T10:14:50.557Z,0.65
2022-10-02T10:17:39.016Z,1.02
2022-10-02T10:20:12.497Z,1.20
2022-10-02T10:22:44.861Z,1.00
2022-10-02T10:25:37.529Z,1.08
2022-10-02T10:28:25.968Z,1.10
2022-10-02T10:31:16.807Z,0.88
2022-10-02T10:33:52.314Z,1.40
2022-10-02T10:36:55.539Z,0.93
2022-10-02T10:39:49.467Z,1.00
2022-10-02T10:42:37.777Z,0.80
2022-10-02T10:45:26.345Z,1.17
2022-10-02T10:48:31.205Z,0.90
2022-10-02T10:51:14.112Z,1.00
2022-10-02T10:54:00.997Z,1.27
2022-10-02T10:56:50.138Z,1.10
2022-10-02T10:59:42.283Z,1.05
2022-10-02T11:02:24.098Z,0.77
2022-10-02T11:05:06.119Z,1.10
2022-10-02T11:07:39.259Z,0.80
2022-10-02T11:10:28.585Z,1.08
2022-10-02T11:13:13.560Z,0.88
2022-10-02T11:16:06.546Z,1.10
2022-10-02T11:18:48.226Z,1.43
2022-10-02T11:21:45.154Z,1.00
2022-10-02T11:24:29.783Z,1.08
2022-10-02T11:27:38.293Z,1.08
2022-10-02T11:30:24.148Z,1.25
2022-10-02T11:33:08.745Z,1.30
2022-10-02T11:35:52.562Z,1.25
2022-10-02T11:38:35.418Z,1.55
2022-10-02T11:41:04.790Z,1.23
2022-10-02T11:43:43.904Z,1.23
2022-10-02T11:46:45.471Z,0.83
2022-10-02T11:49:27.048Z,0.93
2022-10-02T11:52:00.274Z,1.25
2022-10-02T11:54:50.679Z,1.10
2022-10-02T11:57:19.882Z,1.10
2022-10-02T12:00:13.968Z,1.37
2022-10-02T12:03:01.697Z,1.67
2022-10-02T12:05:46.606Z,1.55
2022-10-02T12:08:19.972Z,0.85
2022-10-02T12:10:52.769Z,1.17
2022-10-02T12:13:45.175Z,1.10
2022-10-02T12:16:52.323Z,1.13
2022-10-02T12:19:39.535Z,1.45
2022-10-02T12:23:03.615Z,0.90
2022-10-02T12:26:14.285Z,0.85
2022-10-02T12:29:14.441Z,0.90
2022-10-02T12:31:58.983Z,1.05
2022-10-02T12:34:58.173Z,0.90
2022-10-02T12:37:48.302Z,1.00
2022-10-02T12:40:21.261Z,1.25
2022-10-02T12:43:19.362Z,0.77
2022-10-02T12:46:23.303Z,0.85
2022-10-02T12:49:12.282Z,0.80
2022-10-02T12:52:00.911Z,1.13
2022-10-02T12:54:59.785Z,1.20
2022-10-02T12:57:58.698Z,1.23
2022-10-02T13:00:53.931Z,0.95
2022-10-02T13:04:07.156Z,1.02
2022-10-02T13:06:46.534Z,0.93
2022-10-02T13:09:12.828Z,1.15
2022-10-02T13:12:00.868Z,0.80
2022-10-02T13:14:52.289Z,0.70
2022-10-02T13:17:25.377Z,1.35
2022-10-02T13:20:30.028Z,1.13
2022-10-02T13:22:58.107Z,1.10
2022-10-02T13:25:39.588Z,0.87
2022-10-02T13:28:13.579Z,0.80
2022-10-02T13:30:53.320Z,2.80
2022-10-02T13:33:53.037Z,2.88
2022-10-02T13:36:35.055Z,6.55
2022-10-02T13:39:04.042Z,4.13
2022-10-02T13:41:47.522Z,2.42
2022-10-02T13:44:26.117Z,7.22
2022-10-02T13:47:04.526Z,7.78
2022-10-02T13:50:15.308Z,1.75
2022-10-02T13:53:05.313Z,1.37
2022-10-02T13:55:41.961Z,1.05
2022-10-02T13:58:28.367Z,1.02
2022-10-02T14:01:16.193Z,1.10
2022-10-02T14:03:54.353Z,1.13
2022-10-02T14:06:58.552Z,0.70
2022-10-02T14:09:27.896Z,1.00
2022-10-02T14:12:00.923Z,1.45
2022-10-02T14:14:56.082Z,0.80
2022-10-02T14:17:35.907Z,0.85
2022-10-02T14:20:23.529Z,1.10
2022-10-02T14:22:55.728Z,0.75
2022-10-02T14:25:35.875Z,1.02
2022-10-02T14:28:44.202Z,0.93
2022-10-02T14:31:40.450Z,1.30
2022-10-02T14:34:25.047Z,0.80
2022-10-02T14:37:28.988Z,1.42
2022-10-02T14:40:00.565Z,0.95
2022-10-02T14:43:18.447Z,1.30
2022-10-02T14:46:03.229Z,1.08
2022-10-02T14:48:45.991Z,1.10
2022-10-02T14:51:45.600Z,1.25
2022-10-02T14:54:29.784Z,0.80
2022-10-02T14:57:29.863Z,1.17
2022-10-02T15:00:04.674Z,0.82
2022-10-02T15:02:55.956Z,1.27
2022-10-02T15:05:37.482Z,1.20
2022-10-02T15:08:14.104Z,1.73
2022-10-02T15:10:42.288Z,1.25
2022-10-02T15:13:37.355Z,1.20
2022-10-02T15:16:38.768Z,1.50
2022-10-02T15:19:40.325Z,0.80
2022-10-02T15:22:27.139Z,1.30
2022-10-02T15:25:17.814Z,1.00
2022-10-02T15:28:31.498Z,1.15
2022-10-02T15:31:22.998Z,1.40
2022-10-02T15:34:03.908Z,1.27
2022-10-02T15:36:48.975Z,1.20
2022-10-02T15:39:27.275Z,1.35
2022-10-02T15:42:04.572Z,0.80
2022-10-02T15:44:52.092Z,1.00
2022-10-02T15:47:38.110Z,1.25
2022-10-02T15:50:40.771Z,1.10
2022-10-02T15:53:54.472Z,1.00
2022-10-02T15:56:32.649Z,0.85
2022-10-02T15:59:17.978Z,0.90
2022-10-02T16:01:53.705Z,1.08
2022-10-02T16:04:29.576Z,1.10
2022-10-02T16:07:14.484Z,1.80
2022-10-02T16:09:54.561Z,1.17
2022-10-02T16:12:36.995Z,1.07
2022-10-02T16:15:16.147Z,1.02
2022-10-02T16:18:04.000Z,0.98
2022-10-02T16:20:46.071Z,1.50
2022-10-02T16:23:30.345Z,1.00
2022-10-02T16:26:12.437Z,1.10
2022-10-02T16:29:03.267Z,1.15
2022-10-02T16:32:03.192Z,1.15
2022-10-02T16:34:59.657Z,0.98
2022-10-02T16:37:37.994Z,1.10
2022-10-02T16:40:23.141Z,0.80
2022-10-02T16:43:12.766Z,1.00
2022-10-02T16:45:52.130Z,1.10
2022-10-02T16:48:29.310Z,1.30
2022-10-02T16:51:14.128Z,1.23
2022-10-02T16:53:48.476Z,1.63
2022-10-02T16:56:32.512Z,1.35
2022-10-02T16:59:08.196Z,1.17
2022-10-02T17:02:13.113Z,1.98
2022-10-02T17:04:46.785Z,1.10
2022-10-02T17:07:45.291Z,1.13
2022-10-02T17:10:24.540Z,1.13
2022-10-02T17:12:56.055Z,1.23
2022-10-02T17:15:38.925Z,1.30
2022-10-02T17:18:17.195Z,1.35
2022-10-02T17:20:49.771Z,1.30
2022-10-02T17:23:39.491Z,1.25
2022-10-02T17:26:11.780Z,1.10
2022-10-02T17:28:51.643Z,1.42
2022-10-02T17:31:36.648Z,1.63
2022-10-02T17:34:20.994Z,1.33
2022-10-02T17:36:53.843Z,1.30
2022-10-02T17:39:38.377Z,1.70
2022-10-02T17:42:39.539Z,1.45
2022-10-02T17:45:26.379Z,1.40
2022-10-02T17:48:04.437Z,1.70
2022-10-02T17:50:44.672Z,1.70
2022-10-02T17:53:44.677Z,1.65
2022-10-02T17:56:49.908Z,1.63
2022-10-02T17:59:40.624Z,1.42
2022-10-02T18:02:22.126Z,1.67
2022-10-02T18:05:11.753Z,1.77
2022-10-02T18:08:03.057Z,1.63
2022-10-02T18:10:39.376Z,1.63
2022-10-02T18:13:25.927Z,1.35
2022-10-02T18:16:17.956Z,2.00
2022-10-02T18:19:37.166Z,1.98
2022-10-02T18:22:17.738Z,1.33
2022-10-02T18:25:02.723Z,2.10
2022-10-02T18:27:32.062Z,1.73
2022-10-02T18:30:29.985Z,1.73
2022-10-02T18:33:27.235Z,1.40
2022-10-02T18:36:15.212Z,1.52
2022-10-02T18:38:41.476Z,1.50
2022-10-02T18:41:45.700Z,1.70
2022-10-02T18:44:33.406Z,1.50
2022-10-02T18:47:28.781Z,1.60
2022-10-02T18:50:22.752Z,1.92
2022-10-02T18:52:58.178Z,2.00
2022-10-02T18:55:39.688Z,1.67
2022-10-02T18:58:07.803Z,1.58
2022-10-02T19:01:03.838Z,2.10
2022-10-02T19:03:50.058Z,2.22
2022-10-02T19:06:32.792Z,1.58
2022-10-02T19:09:08.581Z,1.63
2022-10-02T19:11:46.192Z,1.58
2022-10-02T19:14:15.349Z,1.48
2022-10-02T19:16:57.022Z,2.05
2022-10-02T19:19:24.362Z,1.80
2022-10-02T19:21:57.246Z,2.00
2022-10-02T19:24:30.629Z,1.25
2022-10-02T19:27:04.654Z,1.80
2022-10-02T19:29:41.653Z,1.50
2022-10-02T19:32:18.305Z,1.60
2022-10-02T19:34:48.676Z,1.60
2022-10-02T19:37:18.144Z,1.08
2022-10-02T19:39:54.994Z,1.10
2022-10-02T19:42:25.922Z,1.00
2022-10-02T19:45:02.737Z,1.42
2022-10-02T19:47:50.183Z,0.83
2022-10-02T19:50:23.199Z,1.42
2022-10-02T19:52:57.347Z,1.23
2022-10-02T19:55:32.199Z,1.27
2022-10-02T19:58:38.207Z,1.13
2022-10-02T20:01:06.844Z,1.03
2022-10-02T20:03:33.955Z,1.17
2022-10-02T20:06:12.126Z,1.50
2022-10-02T20:08:44.838Z,1.35
2022-10-02T20:11:15.142Z,0.90
2022-10-02T20:13:53.403Z,1.00
2022-10-02T20:16:43.391Z,1.02
2022-10-02T20:19:17.974Z,0.98
2022-10-02T20:21:52.788Z,1.92
2022-10-02T20:24:37.245Z,1.00
2022-10-02T20:27:15.090Z,1.20
2022-10-02T20:29:47.137Z,1.42
2022-10-02T20:32:24.032Z,1.00
2022-10-02T20:34:57.256Z,0.90
2022-10-02T20:37:29.452Z,0.95
2022-10-02T20:40:21.507Z,1.33
2022-10-02T20:42:54.973Z,1.00
2022-10-02T20:45:28.005Z,1.55
2022-10-02T20:48:55.570Z,1.33
2022-10-02T20:52:05.872Z,0.93
2022-10-02T20:54:42.245Z,1.13
2022-10-02T20:57:43.115Z,0.88
2022-10-02T21:00:20.977Z,1.20
2022-10-02T21:03:24.334Z,0.93
2022-10-02T21:06:46.181Z,1.20
2022-10-02T21:09:30.604Z,1.60
2022-10-02T21:12:29.832Z,1.45
2022-10-02T21:15:27.427Z,1.58
2022-10-02T21:18:32.929Z,1.10
2022-10-02T21:21:19.279Z,1.15
2022-10-02T21:24:19.019Z,1.03
2022-10-02T21:27:06.893Z,1.17
2022-10-02T21:29:43.895Z,1.48
2022-10-02T21:32:24.997Z,1.42
2022-10-02T21:35:16.575Z,1.13
2022-10-02T21:38:10.054Z,1.30
2022-10-02T21:40:58.099Z,1.23
2022-10-02T21:43:43.101Z,1.70
2022-10-02T21:46:33.845Z,0.88
2022-10-02T21:49:37.527Z,1.10
2022-10-02T21:52:22.170Z,1.67
2022-10-02T21:55:13.442Z,1.13
2022-10-02T21:58:18.895Z,0.90
2022-10-02T22:01:07.677Z,0.80
2022-10-02T22:04:02.009Z,0.85
2022-10-02T22:06:54.622Z,0.63
2022-10-02T22:09:36.976Z,0.93
2022-10-02T22:12:20.529Z,0.90
2022-10-02T22:14:53.719Z,0.50
2022-10-02T22:17:40.837Z,0.60
2022-10-02T22:20:31.842Z,0.60
2022-10-02T22:23:03.199Z,0.90
2022-10-02T22:25:59.568Z,0.70
2022-10-02T22:28:37.903Z,0.80
2022-10-02T22:31:20.964Z,0.85
2022-10-02T22:33:58.866Z,0.80
2022-10-02T22:36:36.358Z,0.57
2022-10-02T22:39:10.790Z,0.82
2022-10-02T22:41:49.737Z,0.70
2022-10-02T22:44:51.696Z,0.70
2022-10-02T22:47:17.958Z,1.20
2022-10-02T22:49:57.629Z,0.95
2022-10-02T22:52:48.888Z,0.93
2022-10-02T22:55:21.444Z,1.00
2022-10-02T22:58:02.300Z,0.95
2022-10-02T23:00:49.127Z,1.00
2022-10-02T23:03:28.948Z,2.00
2022-10-02T23:06:06.572Z,1.85
2022-10-02T23:08:47.289Z,1.95
2022-10-02T23:11:19.340Z,1.80
2022-10-02T23:14:00.860Z,1.17
2022-10-02T23:16:41.215Z,1.08
2022-10-02T23:19:18.331Z,0.95
2022-10-02T23:21:53.079Z,0.68
2022-10-02T23:24:29.683Z,0.80
2022-10-02T23:27:04.932Z,0.70
2022-10-02T23:29:53.875Z,0.60
2022-10-02T23:32:35.378Z,0.52
2022-10-02T23:35:28.458Z,0.50
2022-10-02T23:38:11.913Z,0.65
2022-10-02T23:41:32.619Z,0.50
2022-10-02T23:44:11.340Z,0.70
2022-10-02T23:46:49.763Z,0.88
2022-10-02T23:49:22.850Z,0.73
2022-10-02T23:51:55.048Z,0.70
2022-10-02T23:54:39.763Z,0.60
2022-10-02T23:57:43.811Z,0.70
